Time;durP1;ratioP1;P1;durP2;ratioP2;P2;SDS_P1;SDS_P2;PMS_P1;PMS_P2;Temp;Humidity;BMP_temperature;BMP_pressure;BME280_temperature;BME280_humidity;BME280_pressure;Samples;Min_cycle;Max_cycle;Signal;HPM_P1;HPM_P2
2023/01/31 00:01:47;;;;;;;24.58;4.78;;;;;;;2.03;89.87;102346.53;5027112;28;20042;-71
2023/01/31 00:04:14;;;;;;;29.42;5.72;;;;;;;2.01;89.75;102350.81;5040773;28;20050;-71
2023/01/31 00:06:49;;;;;;;26.73;5.57;;;;;;;1.99;89.97;102344.66;5033976;28;20050;-70
2023/01/31 00:09:17;;;;;;;27.27;4.78;;;;;;;1.98;90.01;102345.53;5024845;28;20034;-70
2023/01/31 00:11:44;;;;;;;25.08;4.95;;;;;;;1.95;90.07;102341.09;5027251;28;20321;-70
2023/01/31 00:14:19;;;;;;;23.80;5.28;;;;;;;1.96;90.21;102347.22;5026171;28;20453;-70
2023/01/31 00:16:46;;;;;;;28.58;4.90;;;;;;;1.93;90.53;102347.09;5027490;28;20057;-70
2023/01/31 00:19:13;;;;;;;32.47;5.10;;;;;;;1.92;90.40;102351.44;5026708;28;20065;-70
2023/01/31 00:21:42;;;;;;;22.63;4.43;;;;;;;1.89;90.49;102353.03;5043919;28;20040;-70
2023/01/31 00:24:13;;;;;;;22.55;5.35;;;;;;;1.88;90.49;102356.50;5026566;28;20046;-70
2023/01/31 00:26:40;;;;;;;26.75;5.32;;;;;;;1.84;90.65;102358.09;5041046;28;20451;-71
2023/01/31 00:29:08;;;;;;;24.85;4.55;;;;;;;1.83;90.61;102371.97;5024991;28;20045;-71
2023/01/31 00:31:36;;;;;;;28.23;5.15;;;;;;;1.81;90.61;102371.03;5040543;28;20046;-71
2023/01/31 00:34:04;;;;;;;20.88;4.75;;;;;;;1.80;90.72;102366.66;5023633;28;20042;-71
2023/01/31 00:36:33;;;;;;;22.35;4.93;;;;;;;1.77;90.62;102362.25;5026886;28;20042;-71
2023/01/31 00:39:03;;;;;;;23.08;4.45;;;;;;;1.72;90.60;102360.34;5026181;28;20049;-70
2023/01/31 00:41:31;;;;;;;24.48;4.55;;;;;;;1.67;90.58;102357.63;5041602;28;20066;-70
2023/01/31 00:43:59;;;;;;;20.25;4.53;;;;;;;1.66;90.50;102348.06;5025969;28;20044;-70
2023/01/31 00:46:27;;;;;;;19.60;4.75;;;;;;;1.64;90.73;102349.72;5024754;28;20077;-70
2023/01/31 00:48:55;;;;;;;22.38;4.63;;;;;;;1.62;90.91;102347.06;5037274;28;20579;-70
2023/01/31 00:51:24;;;;;;;23.95;4.63;;;;;;;1.61;90.81;102355.72;5042429;28;20045;-70
2023/01/31 00:53:53;;;;;;;21.52;4.30;;;;;;;1.59;90.52;102354.78;5026770;28;20572;-71
2023/01/31 00:56:23;;;;;;;25.95;4.93;;;;;;;1.57;90.94;102348.63;5041910;28;20069;-70
2023/01/31 00:58:52;;;;;;;20.50;4.60;;;;;;;1.56;90.95;102341.66;5026785;28;21191;-70
2023/01/31 01:01:25;;;;;;;24.52;4.13;;;;;;;1.54;91.04;102344.22;5022240;28;20050;-70
2023/01/31 01:03:54;;;;;;;16.70;4.30;;;;;;;1.54;91.10;102345.94;5024317;28;20157;-70
2023/01/31 01:06:22;;;;;;;24.27;4.05;;;;;;;1.52;91.04;102348.50;5034528;28;20552;-70
2023/01/31 01:08:51;;;;;;;23.67;4.28;;;;;;;1.52;91.14;102345.91;5038064;28;20137;-71
2023/01/31 01:11:28;;;;;;;21.95;4.38;;;;;;;1.53;91.15;102341.56;5023093;28;20050;-71
2023/01/31 01:13:58;;;;;;;19.75;4.32;;;;;;;1.53;91.19;102333.75;5040927;28;20041;-70
2023/01/31 01:16:31;;;;;;;20.08;4.07;;;;;;;1.53;91.28;102346.75;5024024;28;20030;-70
2023/01/31 01:19:02;;;;;;;18.95;4.10;;;;;;;1.54;91.25;102336.44;5023615;28;20479;-70
2023/01/31 01:21:38;;;;;;;27.65;4.30;;;;;;;1.55;91.44;102335.59;5026836;28;20034;-70
2023/01/31 01:24:11;;;;;;;;;;;;;;;1.55;91.35;102332.09;5027797;28;20151;-70
2023/01/31 01:26:38;;;;;;;21.75;4.25;;;;;;;1.57;91.51;102326.97;5029193;28;19925;-70
2023/01/31 01:29:05;;;;;;;21.17;3.90;;;;;;;1.60;91.46;102325.34;5024641;28;20034;-70
2023/01/31 01:31:32;;;;;;;24.15;4.00;;;;;;;1.64;91.60;102331.50;5037531;28;20049;-70
2023/01/31 01:34:05;;;;;;;24.08;4.25;;;;;;;1.65;91.67;102333.28;5025378;28;20069;-70
2023/01/31 01:36:35;;;;;;;19.27;3.75;;;;;;;1.65;91.65;102321.16;5023342;28;20557;-70
2023/01/31 01:39:08;;;;;;;20.98;3.85;;;;;;;1.65;91.44;102323.75;5025881;28;20070;-70
2023/01/31 01:41:36;;;;;;;17.73;3.65;;;;;;;1.66;91.69;102319.44;5024806;28;20631;-71
2023/01/31 01:44:41;;;;;;;16.95;3.75;;;;;;;1.65;91.81;102310.75;5025465;28;20037;-70
2023/01/31 01:47:51;;;;;;;20.35;4.13;;;;;;;1.63;91.82;102314.16;5024775;28;20042;-71
2023/01/31 01:50:47;;;;;;;25.33;4.30;;;;;;;1.64;91.86;102321.97;5022630;28;20061;-71
2023/01/31 01:53:20;;;;;;;22.90;3.78;;;;;;;1.65;91.98;102322.88;5015096;28;20056;-70
2023/01/31 01:55:53;;;;;;;18.83;3.42;;;;;;;1.67;91.95;102318.63;5037006;28;20530;-70
2023/01/31 01:58:35;;;;;;;22.23;4.18;;;;;;;1.67;92.04;102318.63;5037979;28;20472;-72
2023/01/31 02:01:07;;;;;;;26.27;4.30;;;;;;;1.69;92.01;102332.53;5022392;28;20045;-70
2023/01/31 02:03:36;;;;;;;22.88;4.28;;;;;;;1.72;92.22;102317.03;5023772;28;22218;-70
2023/01/31 02:06:05;;;;;;;25.30;4.05;;;;;;;1.75;92.20;102324.91;5023374;28;20097;-71
2023/01/31 02:08:36;;;;;;;18.90;3.85;;;;;;;1.80;92.25;102322.47;5038042;28;20052;-70
2023/01/31 02:11:25;;;;;;;17.90;4.15;;;;;;;1.82;92.17;102318.19;5040326;28;20161;-70
2023/01/31 02:14:07;;;;;;;18.08;4.30;;;;;;;1.88;92.22;102323.56;5032448;28;20053;-70
2023/01/31 02:16:35;;;;;;;21.02;3.90;;;;;;;1.89;92.09;102320.13;5025824;28;20034;-70
2023/01/31 02:19:17;;;;;;;20.00;4.32;;;;;;;1.91;91.85;102325.38;5023767;28;20054;-70
2023/01/31 02:22:03;;;;;;;25.08;4.80;;;;;;;1.94;92.24;102328.94;5023907;28;20041;-70
2023/01/31 02:25:21;;;;;;;19.45;4.68;;;;;;;2.00;92.25;102321.31;5024891;28;20068;-70
2023/01/31 02:28:04;;;;;;;23.90;4.53;;;;;;;2.08;92.34;102329.34;5018322;28;20842;-70
2023/01/31 02:31:04;;;;;;;24.00;4.32;;;;;;;2.14;92.26;102326.91;5026338;28;20045;-70
2023/01/31 02:33:51;;;;;;;21.23;4.25;;;;;;;2.20;92.30;102333.13;5031604;28;20049;-70
2023/01/31 02:36:47;;;;;;;22.02;4.57;;;;;;;2.27;92.17;102335.09;5017977;28;20034;-70
2023/01/31 02:39:51;;;;;;;26.55;4.80;;;;;;;2.31;92.10;102323.91;5018660;28;20046;-71
2023/01/31 02:43:04;;;;;;;25.98;5.38;;;;;;;2.38;92.09;102324.94;5041255;28;20568;-70
2023/01/31 02:46:00;;;;;;;26.95;5.20;;;;;;;2.43;91.99;102320.78;5019253;28;20592;-70
2023/01/31 02:48:41;;;;;;;28.45;5.53;;;;;;;2.47;91.98;102317.38;5020533;28;20038;-71
2023/01/31 02:51:29;;;;;;;22.17;5.32;;;;;;;2.48;91.51;102317.44;5040483;28;20633;-70
2023/01/31 02:54:12;;;;;;;21.20;4.85;;;;;;;2.49;91.40;102313.13;5044211;28;20034;-70
2023/01/31 02:56:45;;;;;;;21.40;5.63;;;;;;;2.52;91.53;102310.59;5026591;28;20042;-71
2023/01/31 02:59:26;;;;;;;23.98;5.05;;;;;;;2.54;91.37;102306.31;5026471;28;20068;-72
2023/01/31 03:02:01;;;;;;;22.83;5.30;;;;;;;2.53;91.11;102304.56;5041153;28;20565;-72
2023/01/31 03:04:35;;;;;;;21.53;6.27;;;;;;;2.55;91.17;102302.84;5041973;28;20042;-70
2023/01/31 03:07:12;;;;;;;18.25;5.68;;;;;;;2.57;91.29;102308.97;5024099;28;20065;-71
2023/01/31 03:10:01;;;;;;;27.50;6.63;;;;;;;2.59;91.33;102312.50;5010993;28;20042;-71
2023/01/31 03:12:40;;;;;;;35.80;7.13;;;;;;;2.63;91.49;102297.84;5027240;28;20039;-71
2023/01/31 03:18:48;;;;;;;32.60;6.55;;;;;;;2.74;91.42;102292.94;5029684;28;20061;-70
2023/01/31 03:21:25;;;;;;;22.63;6.25;;;;;;;2.74;91.48;102286.00;5033546;28;21014;-70
2023/01/31 03:23:56;;;;;;;27.55;6.53;;;;;;;2.77;91.51;102291.28;5026258;28;20049;-70
2023/01/31 03:26:26;;;;;;;25.40;6.50;;;;;;;2.81;91.40;102289.63;5027136;28;20084;-70
2023/01/31 03:28:57;;;;;;;24.75;6.38;;;;;;;2.83;91.50;102287.06;5025697;28;20849;-70
2023/01/31 03:31:34;;;;;;;30.88;7.43;;;;;;;2.86;91.51;102279.31;5024979;28;20041;-70
2023/01/31 03:34:11;;;;;;;22.65;7.03;;;;;;;2.88;91.42;102272.44;5025536;28;20049;-70
2023/01/31 03:37:06;;;;;;;24.70;6.88;;;;;;;2.90;91.58;102281.19;5028192;28;20129;-70
2023/01/31 03:40:40;;;;;;;25.92;7.38;;;;;;;2.93;91.30;102263.00;5027907;28;20051;-71
2023/01/31 03:43:36;;;;;;;24.80;6.65;;;;;;;2.94;91.24;102265.66;5012782;28;20050;-71
2023/01/31 03:46:17;;;;;;;27.25;7.15;;;;;;;2.96;91.33;102265.69;5041771;28;20659;-70
2023/01/31 03:48:52;;;;;;;27.23;8.20;;;;;;;2.98;91.31;102264.00;5043182;28;20513;-70
2023/01/31 03:51:28;;;;;;;27.42;7.75;;;;;;;2.98;91.46;102258.78;5035300;28;20048;-70
2023/01/31 03:54:05;;;;;;;22.52;7.07;;;;;;;3.01;91.49;102250.16;5040577;28;20041;-70
2023/01/31 03:56:42;;;;;;;28.52;8.13;;;;;;;3.03;91.49;102249.34;5040829;28;20045;-70
2023/01/31 03:59:17;;;;;;;27.83;8.02;;;;;;;3.06;91.69;102249.44;5041734;28;20111;-70
2023/01/31 04:01:48;;;;;;;36.25;8.82;;;;;;;3.09;91.75;102251.22;5026712;28;20042;-71
2023/01/31 04:04:29;;;;;;;29.13;8.57;;;;;;;3.11;91.62;102255.59;5040863;28;20518;-71
2023/01/31 04:06:56;;;;;;;33.97;8.20;;;;;;;3.11;91.69;102260.81;5026173;28;20042;-70
2023/01/31 04:09:24;;;;;;;27.90;8.15;;;;;;;3.14;91.95;102265.25;5039543;28;20039;-70
2023/01/31 04:11:51;;;;;;;26.35;8.65;;;;;;;3.17;91.71;102254.00;5022969;28;20484;-70
2023/01/31 04:14:18;;;;;;;24.02;7.70;;;;;;;3.20;91.85;102259.28;5041590;28;20081;-71
2023/01/31 04:16:45;;;;;;;31.02;9.55;;;;;;;3.22;91.75;102257.59;5041841;28;20095;-71
2023/01/31 04:19:12;;;;;;;31.15;9.35;;;;;;;3.24;91.71;102240.25;5043198;28;20124;-71
2023/01/31 04:21:39;;;;;;;29.55;8.82;;;;;;;3.25;91.86;102248.13;5024723;28;20042;-71
2023/01/31 04:24:08;;;;;;;27.35;9.27;;;;;;;3.26;91.88;102241.19;5042624;28;20041;-71
2023/01/31 04:26:36;;;;;;;35.53;9.82;;;;;;;3.29;91.85;102237.75;5025193;28;20045;-70
2023/01/31 04:29:04;;;;;;;30.83;9.52;;;;;;;3.29;91.76;102230.84;5027408;28;20042;-71
2023/01/31 04:31:31;;;;;;;32.78;9.13;;;;;;;3.31;91.75;102228.25;5023895;28;20568;-70
2023/01/31 04:33:58;;;;;;;29.75;9.48;;;;;;;3.31;91.87;102228.25;5025247;28;20042;-70
2023/01/31 04:36:26;;;;;;;26.98;9.50;;;;;;;3.31;91.62;102230.84;5023188;28;20100;-70
2023/01/31 04:38:53;;;;;;;29.23;9.18;;;;;;;3.31;91.92;102231.72;5040625;28;20026;-70
2023/01/31 04:41:20;;;;;;;30.67;9.48;;;;;;;3.29;91.87;102233.44;5024782;28;20057;-70
2023/01/31 04:43:47;;;;;;;28.40;9.77;;;;;;;3.25;91.79;102229.00;5026509;28;20068;-70
2023/01/31 04:46:14;;;;;;;31.02;9.40;;;;;;;3.23;91.60;102223.75;5027721;28;20046;-70
2023/01/31 04:48:41;;;;;;;28.17;9.93;;;;;;;3.21;91.82;102219.31;5028925;28;20042;-70
2023/01/31 04:51:08;;;;;;;33.72;10.52;;;;;;;3.18;91.87;102222.75;5026465;28;20629;-71
2023/01/31 04:53:35;;;;;;;27.52;9.45;;;;;;;3.17;91.96;102221.00;5043430;28;20368;-71
2023/01/31 04:56:04;;;;;;;39.03;10.75;;;;;;;3.17;92.09;102228.81;5034600;28;20048;-71
2023/01/31 04:58:31;;;;;;;26.25;10.18;;;;;;;3.18;92.15;102221.88;5027811;28;20045;-71
2023/01/31 05:00:58;;;;;;;28.55;10.57;;;;;;;3.21;92.22;102224.53;5022749;28;20038;-71
2023/01/31 05:03:26;;;;;;;31.63;10.25;;;;;;;3.23;92.36;102225.47;5024899;28;20503;-72
2023/01/31 05:05:53;;;;;;;33.65;10.80;;;;;;;3.26;92.36;102220.31;5025013;28;20555;-72
2023/01/31 05:08:20;;;;;;;32.17;10.27;;;;;;;3.24;92.35;102212.47;5041852;28;20129;-72
2023/01/31 05:10:47;;;;;;;37.67;10.73;;;;;;;3.25;92.21;102215.97;5026633;28;21363;-70
2023/01/31 05:13:14;;;;;;;24.88;10.13;;;;;;;3.23;92.05;102215.94;5011662;28;20038;-70
2023/01/31 05:15:41;;;;;;;37.53;10.73;;;;;;;3.21;92.01;102215.00;5024707;28;20037;-69
2023/01/31 05:18:08;;;;;;;25.90;10.35;;;;;;;3.18;91.81;102214.94;5025343;28;20854;-70
2023/01/31 05:20:39;;;;;;;26.52;9.73;;;;;;;3.17;91.91;102212.31;5042118;28;20081;-70
2023/01/31 05:23:07;;;;;;;31.38;10.25;;;;;;;3.15;91.95;102207.06;5042043;28;20072;-70
2023/01/31 05:25:35;;;;;;;29.35;9.88;;;;;;;3.14;91.88;102209.63;5024773;28;20042;-70
2023/01/31 05:28:04;;;;;;;32.38;10.30;;;;;;;3.11;91.95;102195.66;5025410;28;20064;-70
2023/01/31 05:30:31;;;;;;;29.05;9.93;;;;;;;3.11;92.17;102182.63;5026313;28;20919;-70
2023/01/31 05:32:58;;;;;;;27.77;9.75;;;;;;;3.13;92.35;102184.41;5018737;28;20057;-70
2023/01/31 05:35:28;;;;;;;27.15;9.63;;;;;;;3.17;92.33;102191.47;5038039;28;20766;-70
2023/01/31 05:37:55;;;;;;;27.92;10.07;;;;;;;3.19;92.47;102187.16;5033240;28;20038;-70
2023/01/31 05:40:23;;;;;;;31.73;10.93;;;;;;;3.21;92.25;102182.84;5023281;28;20034;-70
2023/01/31 05:43:01;;;;;;;27.65;9.93;;;;;;;3.24;92.43;102170.78;5012174;28;20046;-71
2023/01/31 05:45:29;;;;;;;28.75;9.05;;;;;;;3.26;92.46;102178.63;5022044;28;20899;-70
2023/01/31 05:47:57;;;;;;;29.00;9.60;;;;;;;3.38;92.89;102181.50;5021681;28;20098;-71
2023/01/31 05:50:25;;;;;;;28.55;9.38;;;;;;;3.54;93.16;102179.19;5022639;28;20608;-68
2023/01/31 05:53:04;;;;;;;22.85;10.05;;;;;;;3.67;93.08;102176.00;5025361;28;20046;-68
2023/01/31 05:55:31;;;;;;;27.77;9.63;;;;;;;3.75;92.49;102177.84;5025372;28;20042;-69
2023/01/31 05:57:59;;;;;;;30.20;9.20;;;;;;;3.83;92.62;102171.06;5020237;28;20056;-68
2023/01/31 06:00:27;;;;;;;30.88;9.75;;;;;;;4.00;92.90;102156.63;5038089;28;20044;-67
2023/01/31 06:02:58;;;;;;;23.67;9.23;;;;;;;4.17;92.90;102153.41;5020040;28;20137;-67
2023/01/31 06:05:26;;;;;;;28.80;9.98;;;;;;;4.27;92.19;102155.31;5033249;28;20085;-67
2023/01/31 06:07:54;;;;;;;32.00;9.55;;;;;;;4.31;91.55;102151.03;5017984;28;20042;-69
2023/01/31 06:10:22;;;;;;;26.55;9.32;;;;;;;4.39;91.02;102162.47;5022254;28;20037;-68
2023/01/31 06:12:49;;;;;;;24.73;8.90;;;;;;;4.41;90.40;102163.38;5020319;28;20045;-68
2023/01/31 06:15:16;;;;;;;24.60;8.68;;;;;;;4.45;90.55;102169.53;5022282;28;20038;-69
2023/01/31 06:17:44;;;;;;;25.50;9.13;;;;;;;4.48;89.82;102172.19;5004587;28;20073;-69
2023/01/31 06:20:11;;;;;;;26.23;8.52;;;;;;;4.42;89.04;102164.28;5036540;28;20038;-69
2023/01/31 06:22:40;;;;;;;27.52;8.98;;;;;;;4.28;88.49;102180.59;5020770;28;20921;-69
2023/01/31 06:25:08;;;;;;;23.20;8.65;;;;;;;4.14;88.67;102184.66;5025634;28;20050;-69
2023/01/31 06:27:35;;;;;;;23.35;8.43;;;;;;;4.00;88.67;102171.38;5026173;28;20050;-69
2023/01/31 06:30:03;;;;;;;24.60;8.25;;;;;;;3.90;88.89;102175.56;5026998;28;20037;-69
2023/01/31 06:32:31;;;;;;;24.77;9.13;;;;;;;3.83;89.10;102174.56;5022561;28;20049;-69
2023/01/31 06:34:58;;;;;;;23.65;8.88;;;;;;;3.77;89.37;102173.56;5025627;28;20045;-69
2023/01/31 06:37:25;;;;;;;25.63;8.95;;;;;;;3.73;89.39;102165.66;5022599;28;20038;-69
2023/01/31 06:39:52;;;;;;;31.08;9.30;;;;;;;3.70;89.49;102164.72;5021246;28;20481;-69
2023/01/31 06:42:19;;;;;;;25.05;9.20;;;;;;;3.66;89.90;102170.75;5025882;28;20042;-69
2023/01/31 06:44:46;;;;;;;31.15;9.70;;;;;;;3.62;90.01;102161.09;5029089;28;20502;-69
2023/01/31 06:47:13;;;;;;;26.58;9.13;;;;;;;3.62;90.01;102148.91;5027580;28;20050;-69
2023/01/31 06:49:40;;;;;;;26.88;9.73;;;;;;;3.62;89.99;102148.06;5030457;28;20120;-68
2023/01/31 06:52:07;;;;;;;27.85;9.25;;;;;;;3.63;90.02;102142.00;5027914;28;20030;-69
2023/01/31 06:54:34;;;;;;;28.70;9.02;;;;;;;3.66;89.65;102121.19;5027823;28;20545;-69
2023/01/31 06:57:01;;;;;;;26.77;9.40;;;;;;;3.63;89.89;102131.56;5029640;28;20037;-69
2023/01/31 06:59:28;;;;;;;25.77;9.38;;;;;;;3.61;89.97;102120.22;5026178;28;20038;-69
2023/01/31 07:01:56;;;;;;;32.20;8.88;;;;;;;3.59;89.80;102135.84;5026983;28;20113;-69
2023/01/31 07:04:23;;;;;;;28.05;9.25;;;;;;;3.58;89.92;102126.25;5028627;28;20034;-69
2023/01/31 07:06:50;;;;;;;23.33;9.07;;;;;;;3.60;90.01;102145.44;5028100;28;20037;-69
2023/01/31 07:09:18;;;;;;;27.15;9.00;;;;;;;3.64;89.84;102135.94;5030100;28;20042;-69
2023/01/31 07:11:45;;;;;;;23.10;8.10;;;;;;;3.66;89.83;102137.72;5029569;28;20121;-69
2023/01/31 07:14:12;;;;;;;26.30;8.90;;;;;;;3.68;89.72;102136.03;5025169;28;20878;-69
2023/01/31 07:16:39;;;;;;;21.63;8.38;;;;;;;3.70;89.80;102142.16;5025436;28;20038;-69
2023/01/31 07:19:06;;;;;;;26.75;8.70;;;;;;;3.73;89.55;102138.72;5026636;28;20050;-68
2023/01/31 07:21:35;;;;;;;32.22;8.90;;;;;;;3.75;89.26;102128.28;5025811;28;20081;-67
2023/01/31 07:24:03;;;;;;;21.60;7.72;;;;;;;3.75;89.18;102120.47;5028283;28;20737;-67
2023/01/31 07:26:30;;;;;;;24.20;8.23;;;;;;;3.75;89.13;102105.72;5028490;28;20081;-68
2023/01/31 07:28:57;;;;;;;24.58;8.32;;;;;;;3.77;89.35;102113.56;5026354;28;20042;-68
2023/01/31 07:31:24;;;;;;;20.60;7.50;;;;;;;3.77;89.47;102118.78;5028612;28;20061;-68
2023/01/31 07:33:51;;;;;;;21.92;8.05;;;;;;;3.78;89.40;102136.19;5028145;28;21067;-68
2023/01/31 07:36:21;;;;;;;22.42;7.80;;;;;;;3.81;89.47;102116.25;5027291;28;20073;-68
2023/01/31 07:38:48;;;;;;;20.20;7.57;;;;;;;3.83;89.58;102113.66;5028688;28;20069;-68
2023/01/31 07:41:15;;;;;;;24.40;7.72;;;;;;;3.85;89.43;102114.56;5029325;28;20048;-68
2023/01/31 07:43:42;;;;;;;19.58;7.53;;;;;;;3.92;89.12;102121.66;5023828;28;20042;-68
2023/01/31 07:46:10;;;;;;;24.30;7.88;;;;;;;3.92;89.34;102119.03;5027705;28;20045;-68
2023/01/31 07:48:38;;;;;;;21.25;7.53;;;;;;;3.95;89.40;102113.88;5026379;28;20069;-68
2023/01/31 07:51:05;;;;;;;25.52;8.05;;;;;;;4.00;89.42;102114.84;5026954;28;20045;-69
2023/01/31 07:53:40;;;;;;;23.08;7.63;;;;;;;4.03;89.21;102114.03;5026399;28;20038;-68
2023/01/31 07:56:14;;;;;;;27.50;8.15;;;;;;;4.06;89.26;102116.69;5028054;28;20599;-68
2023/01/31 07:58:44;;;;;;;20.58;7.10;;;;;;;4.08;89.10;102122.78;5025766;28;20551;-68
2023/01/31 08:04:12;;;;;;;25.42;7.40;;;;;;;4.16;88.87;102104.66;5026796;28;20049;-68
2023/01/31 08:06:52;;;;;;;17.77;6.72;;;;;;;4.17;89.05;102098.59;5028203;28;20045;-68
2023/01/31 08:09:19;;;;;;;21.90;6.65;;;;;;;4.22;89.09;102096.06;5024815;28;20045;-68
2023/01/31 08:11:46;;;;;;;23.38;6.57;;;;;;;4.29;88.91;102088.34;5028861;28;20041;-70
2023/01/31 08:14:13;;;;;;;25.13;7.03;;;;;;;4.33;89.03;102077.09;5026868;28;20045;-68
2023/01/31 08:16:40;;;;;;;22.45;7.55;;;;;;;4.40;88.69;102088.50;5027935;28;20042;-68
2023/01/31 08:19:07;;;;;;;21.92;7.53;;;;;;;4.46;88.82;102085.13;5026064;28;20177;-69
2023/01/31 08:21:34;;;;;;;21.25;7.15;;;;;;;4.50;88.41;102074.72;5026592;28;20053;-69
2023/01/31 08:24:01;;;;;;;21.83;6.47;;;;;;;4.57;88.40;102074.84;5027827;28;20349;-69
2023/01/31 08:26:28;;;;;;;23.83;6.63;;;;;;;4.58;87.87;102079.22;5042643;28;20112;-69
2023/01/31 08:28:55;;;;;;;20.95;6.78;;;;;;;4.61;88.01;102077.53;5028312;28;20605;-69
2023/01/31 08:31:26;;;;;;;18.67;6.60;;;;;;;4.64;87.75;102069.72;5028036;28;20042;-68
2023/01/31 08:33:56;;;;;;;17.67;6.40;;;;;;;4.66;87.50;102065.38;5027528;28;20521;-68
2023/01/31 08:36:33;;;;;;;21.45;6.90;;;;;;;4.70;87.45;102060.22;5027974;28;20085;-70
2023/01/31 08:39:00;;;;;;;20.85;7.10;;;;;;;4.73;87.41;102060.25;5028149;28;20042;-68
2023/01/31 08:41:29;;;;;;;21.10;6.30;;;;;;;4.77;87.30;102056.81;5027154;28;20038;-69
2023/01/31 08:43:56;;;;;;;17.83;6.50;;;;;;;4.79;87.38;102052.50;5027650;28;20038;-68
2023/01/31 08:46:28;;;;;;;20.15;5.70;;;;;;;4.83;87.09;102051.69;5042060;28;20041;-68
2023/01/31 08:48:59;;;;;;;18.67;6.32;;;;;;;4.87;87.01;102045.63;5026331;28;20049;-69
2023/01/31 08:51:26;;;;;;;20.40;6.22;;;;;;;4.93;86.80;102044.81;5025251;28;20038;-69
2023/01/31 08:53:53;;;;;;;19.15;5.88;;;;;;;4.98;86.60;102045.78;5040534;28;20067;-69
2023/01/31 08:56:24;;;;;;;22.95;5.57;;;;;;;5.03;86.65;102044.09;5025916;28;20353;-69
2023/01/31 08:58:53;;;;;;;15.30;5.60;;;;;;;5.13;86.19;102042.47;5043043;28;20939;-69
2023/01/31 09:01:21;;;;;;;19.23;6.13;;;;;;;5.20;86.20;102030.31;5040651;28;20046;-69
2023/01/31 09:03:55;;;;;;;21.63;5.78;;;;;;;5.31;85.70;102031.31;5022360;28;20046;-68
2023/01/31 09:06:26;;;;;;;16.35;5.00;;;;;;;5.38;85.65;102021.81;5023836;28;20044;-68
2023/01/31 09:08:56;;;;;;;23.63;9.02;;;;;;;5.44;85.31;102014.03;5026300;28;20068;-68
2023/01/31 09:11:28;;;;;;;19.83;5.65;;;;;;;5.50;84.98;102019.31;5007554;28;20049;-69
2023/01/31 09:13:56;;;;;;;13.80;5.40;;;;;;;5.52;84.94;102019.31;5025232;28;20042;-69
2023/01/31 09:16:23;;;;;;;18.83;6.55;;;;;;;5.57;85.02;102017.63;5025410;28;20046;-69
2023/01/31 09:18:52;;;;;;;16.35;4.80;;;;;;;5.64;84.48;102008.09;5023123;28;20586;-68
2023/01/31 09:21:21;;;;;;;19.23;7.47;;;;;;;5.69;84.54;102014.25;5042772;28;20067;-70
2023/01/31 09:23:54;;;;;;;19.75;8.65;;;;;;;5.76;84.06;102010.81;5025617;28;20078;-68
2023/01/31 09:26:21;;;;;;;17.88;4.63;;;;;;;5.83;83.76;101996.94;5027317;28;20049;-68
2023/01/31 09:28:49;;;;;;;16.75;4.90;;;;;;;5.93;83.17;101992.63;5027029;28;20144;-68
2023/01/31 09:31:19;;;;;;;16.55;5.25;;;;;;;6.03;83.19;102004.94;5026651;28;20066;-68
2023/01/31 09:33:47;;;;;;;15.55;5.00;;;;;;;6.14;82.83;102009.38;5024635;28;20236;-70
2023/01/31 09:36:21;;;;;;;13.75;4.78;;;;;;;6.25;81.83;101997.25;5027022;28;20034;-69
2023/01/31 09:38:54;;;;;;;18.88;5.78;;;;;;;6.27;81.94;102005.09;5042457;28;20136;-68
2023/01/31 09:41:35;;;;;;;16.05;5.20;;;;;;;6.29;82.16;102011.22;5027115;28;20104;-68
2023/01/31 09:44:13;;;;;;;16.17;5.00;;;;;;;6.33;81.92;101994.69;5009118;28;20048;-70
2023/01/31 09:46:51;;;;;;;18.02;5.20;;;;;;;6.37;81.82;101988.56;5026113;28;20042;-69
2023/01/31 09:49:27;;;;;;;17.88;4.35;;;;;;;6.42;81.39;101989.50;5024776;28;20046;-69
2023/01/31 09:52:01;;;;;;;17.10;5.18;;;;;;;6.44;81.09;101998.25;5026336;28;20521;-70
2023/01/31 09:54:38;;;;;;;16.58;5.30;;;;;;;6.47;80.94;101984.28;5026284;28;20763;-69
2023/01/31 09:57:11;;;;;;;17.05;4.65;;;;;;;6.51;80.38;101993.91;5025304;28;20561;-69
2023/01/31 09:59:53;;;;;;;19.58;4.60;;;;;;;6.55;80.64;101987.81;5042052;28;20042;-69
2023/01/31 10:02:50;;;;;;;19.83;6.05;;;;;;;6.61;80.72;101997.44;5023813;28;20045;-69
2023/01/31 10:05:38;;;;;;;19.80;4.65;;;;;;;6.65;80.74;101991.34;5024259;28;20502;-69
2023/01/31 10:08:30;;;;;;;17.35;5.80;;;;;;;6.63;80.83;101979.97;5041665;28;20053;-69
2023/01/31 10:11:02;;;;;;;15.27;4.45;;;;;;;6.71;80.63;101982.66;5023239;28;20049;-69
2023/01/31 10:13:35;;;;;;;17.70;4.43;;;;;;;6.77;80.91;101972.16;5038944;28;20503;-69
2023/01/31 10:16:34;;;;;;;21.55;4.38;;;;;;;6.89;80.42;101976.56;5024749;28;20038;-69
2023/01/31 10:19:15;;;;;;;19.00;4.50;;;;;;;6.96;80.47;101978.38;5022529;28;20758;-68
2023/01/31 10:21:53;;;;;;;18.80;4.28;;;;;;;6.95;80.71;101987.09;5022411;28;20034;-69
2023/01/31 10:24:46;;;;;;;18.92;5.65;;;;;;;7.00;80.95;101990.59;5040184;28;20046;-69
2023/01/31 10:27:41;;;;;;;18.65;5.05;;;;;;;6.96;80.49;101991.47;5041626;28;20038;-69
2023/01/31 10:30:19;;;;;;;14.38;6.43;;;;;;;6.89;80.41;101990.56;5023938;28;20797;-69
2023/01/31 10:32:58;;;;;;;15.55;4.63;;;;;;;6.79;80.66;101983.53;5024466;28;20124;-69
2023/01/31 10:35:36;;;;;;;13.73;6.20;;;;;;;6.77;81.29;101970.41;5025956;28;20038;-69
2023/01/31 10:38:16;;;;;;;17.33;5.63;;;;;;;6.83;80.93;101983.56;5025679;28;20042;-69
2023/01/31 10:40:50;;;;;;;14.30;5.00;;;;;;;6.89;81.06;101980.09;5006716;28;20043;-69
2023/01/31 10:43:40;;;;;;;13.70;5.82;;;;;;;6.89;81.23;101989.69;5007009;28;20431;-69
2023/01/31 10:46:11;;;;;;;19.73;5.68;;;;;;;6.88;81.33;101966.94;5028682;28;20038;-69
2023/01/31 10:48:43;;;;;;;15.20;4.75;;;;;;;6.89;81.41;101973.94;5025624;28;20053;-69
2023/01/31 10:51:39;;;;;;;18.70;5.60;;;;;;;6.87;81.44;101968.72;5025191;28;20042;-69
2023/01/31 10:54:32;;;;;;;16.90;6.13;;;;;;;6.84;81.56;101966.06;5026187;28;20131;-69
2023/01/31 10:56:59;;;;;;;12.90;5.70;;;;;;;6.80;81.92;101965.19;5025447;28;20065;-69
2023/01/31 10:59:35;;;;;;;15.18;5.97;;;;;;;6.82;81.56;101959.94;5024179;28;20109;-69
2023/01/31 11:02:03;;;;;;;17.35;6.65;;;;;;;6.79;81.88;101963.44;5024802;28;20050;-69
2023/01/31 11:04:39;;;;;;;20.15;6.75;;;;;;;6.86;82.02;101977.44;5025887;28;20280;-69
2023/01/31 11:07:08;;;;;;;21.98;6.85;;;;;;;6.91;82.20;101964.34;5025578;28;20073;-69
2023/01/31 11:09:52;;;;;;;14.07;6.07;;;;;;;6.96;82.00;101966.13;5025294;28;20044;-70
2023/01/31 11:12:39;;;;;;;15.98;6.57;;;;;;;7.01;81.97;101947.78;5028435;28;20042;-69
2023/01/31 11:15:17;;;;;;;20.95;8.18;;;;;;;7.07;81.81;101945.16;5029704;28;20049;-68
2023/01/31 11:17:46;;;;;;;20.70;8.00;;;;;;;7.11;81.70;101935.56;5028783;28;20050;-69
2023/01/31 11:20:45;;;;;;;25.70;7.95;;;;;;;7.14;81.88;101932.94;5027433;28;20050;-73
2023/01/31 11:23:24;;;;;;;20.65;10.43;;;;;;;7.11;82.09;101933.81;5030562;28;20050;-69
2023/01/31 11:25:53;;;;;;;23.20;10.23;;;;;;;7.15;82.23;101935.56;5027436;28;20100;-69
2023/01/31 11:28:33;;;;;;;17.98;8.32;;;;;;;7.26;82.03;101926.84;5028240;28;20553;-69
2023/01/31 11:31:03;;;;;;;22.67;9.18;;;;;;;7.32;81.79;101926.84;5043736;28;20499;-70
2023/01/31 11:33:40;;;;;;;20.17;9.40;;;;;;;7.30;81.57;101928.56;5039893;28;20034;-69
2023/01/31 11:36:25;;;;;;;25.75;9.27;;;;;;;7.27;81.69;101937.31;5008714;28;20105;-69
2023/01/31 11:38:53;;;;;;;18.90;9.10;;;;;;;7.22;81.92;101935.56;5009217;28;20038;-69
2023/01/31 11:41:36;;;;;;;17.95;9.52;;;;;;;7.22;81.90;101936.47;5009407;28;20454;-69
2023/01/31 11:44:11;;;;;;;21.35;10.45;;;;;;;7.18;82.56;101926.81;5014301;28;20129;-69
2023/01/31 11:46:55;;;;;;;24.33;10.75;;;;;;;7.20;82.51;101924.19;5024199;28;20116;-69
2023/01/31 11:49:33;;;;;;;22.08;10.85;;;;;;;7.18;82.57;101926.81;5027873;28;20148;-69
2023/01/31 11:52:13;;;;;;;20.77;10.63;;;;;;;7.22;82.47;101910.22;5028156;28;20034;-69
2023/01/31 11:54:56;;;;;;;28.52;11.50;;;;;;;7.30;82.51;101915.47;5032853;28;20517;-71
2023/01/31 11:57:30;;;;;;;25.83;11.48;;;;;;;7.36;82.26;101917.22;5029005;28;20045;-70
2023/01/31 12:00:01;;;;;;;24.25;11.02;;;;;;;7.41;82.40;101905.84;5043490;28;20088;-70